sensor_id;sensor_type;location;lat;lon;timestamp;P1;durP1;ratioP1;P2;durP2;ratioP2
24857;SDS011;12935;50.782;6.074;2024-03-06T00:02:09;96.40;;;85.97;;
24857;SDS011;12935;50.782;6.074;2024-03-06T00:04:35;115.57;;;91.33;;
24857;SDS011;12935;50.782;6.074;2024-03-06T00:07:01;103.67;;;88.47;;
24857;SDS011;12935;50.782;6.074;2024-03-06T00:09:26;107.77;;;89.63;;
24857;SDS011;12935;50.782;6.074;2024-03-06T00:11:52;103.00;;;87.73;;
24857;SDS011;12935;50.782;6.074;2024-03-06T00:14:18;108.72;;;89.93;;
24857;SDS011;12935;50.782;6.074;2024-03-06T00:16:44;105.28;;;89.30;;
24857;SDS011;12935;50.782;6.074;2024-03-06T00:19:10;118.10;;;92.43;;
24857;SDS011;12935;50.782;6.074;2024-03-06T00:21:35;104.80;;;89.17;;
24857;SDS011;12935;50.782;6.074;2024-03-06T00:24:01;102.50;;;87.93;;
24857;SDS011;12935;50.782;6.074;2024-03-06T00:26:27;117.53;;;91.17;;
24857;SDS011;12935;50.782;6.074;2024-03-06T00:28:52;110.73;;;91.43;;
24857;SDS011;12935;50.782;6.074;2024-03-06T00:31:18;96.47;;;85.87;;
24857;SDS011;12935;50.782;6.074;2024-03-06T00:33:43;109.53;;;89.60;;
24857;SDS011;12935;50.782;6.074;2024-03-06T00:36:08;104.37;;;86.27;;
24857;SDS011;12935;50.782;6.074;2024-03-06T00:38:33;111.27;;;91.80;;
24857;SDS011;12935;50.782;6.074;2024-03-06T00:40:59;102.10;;;88.93;;
24857;SDS011;12935;50.782;6.074;2024-03-06T00:43:24;110.00;;;89.40;;
24857;SDS011;12935;50.782;6.074;2024-03-06T00:45:49;107.97;;;89.70;;
24857;SDS011;12935;50.782;6.074;2024-03-06T00:48:15;107.13;;;88.13;;
24857;SDS011;12935;50.782;6.074;2024-03-06T00:50:41;114.00;;;94.28;;
24857;SDS011;12935;50.782;6.074;2024-03-06T00:53:06;117.93;;;93.00;;
24857;SDS011;12935;50.782;6.074;2024-03-06T00:55:32;107.73;;;89.07;;
24857;SDS011;12935;50.782;6.074;2024-03-06T00:57:57;101.13;;;86.67;;
24857;SDS011;12935;50.782;6.074;2024-03-06T01:00:22;105.57;;;90.00;;
24857;SDS011;12935;50.782;6.074;2024-03-06T01:02:48;123.50;;;94.83;;
24857;SDS011;12935;50.782;6.074;2024-03-06T01:05:13;107.63;;;90.80;;
24857;SDS011;12935;50.782;6.074;2024-03-06T01:07:38;108.10;;;90.47;;
24857;SDS011;12935;50.782;6.074;2024-03-06T01:10:08;122.32;;;93.15;;
24857;SDS011;12935;50.782;6.074;2024-03-06T01:12:33;108.80;;;88.77;;
24857;SDS011;12935;50.782;6.074;2024-03-06T01:14:58;102.00;;;87.97;;
24857;SDS011;12935;50.782;6.074;2024-03-06T01:17:24;93.40;;;83.60;;
24857;SDS011;12935;50.782;6.074;2024-03-06T01:19:50;96.50;;;86.00;;
24857;SDS011;12935;50.782;6.074;2024-03-06T01:22:15;99.28;;;86.75;;
24857;SDS011;12935;50.782;6.074;2024-03-06T01:24:41;110.23;;;90.10;;
24857;SDS011;12935;50.782;6.074;2024-03-06T01:27:06;111.93;;;91.80;;
24857;SDS011;12935;50.782;6.074;2024-03-06T01:29:31;128.40;;;94.63;;
24857;SDS011;12935;50.782;6.074;2024-03-06T01:32:00;99.60;;;88.13;;
24857;SDS011;12935;50.782;6.074;2024-03-06T01:34:25;116.18;;;92.15;;
24857;SDS011;12935;50.782;6.074;2024-03-06T01:36:51;97.03;;;85.03;;
24857;SDS011;12935;50.782;6.074;2024-03-06T01:39:17;97.10;;;86.33;;
24857;SDS011;12935;50.782;6.074;2024-03-06T01:41:49;101.60;;;90.03;;
24857;SDS011;12935;50.782;6.074;2024-03-06T01:44:16;97.22;;;86.60;;
24857;SDS011;12935;50.782;6.074;2024-03-06T01:46:42;107.57;;;89.82;;
24857;SDS011;12935;50.782;6.074;2024-03-06T01:49:08;104.07;;;87.35;;
24857;SDS011;12935;50.782;6.074;2024-03-06T01:51:34;104.63;;;87.67;;
24857;SDS011;12935;50.782;6.074;2024-03-06T01:54:00;95.75;;;84.93;;
24857;SDS011;12935;50.782;6.074;2024-03-06T01:56:26;96.37;;;85.87;;
24857;SDS011;12935;50.782;6.074;2024-03-06T01:58:53;104.88;;;88.13;;
24857;SDS011;12935;50.782;6.074;2024-03-06T02:01:19;95.53;;;85.35;;
24857;SDS011;12935;50.782;6.074;2024-03-06T02:03:45;99.93;;;86.95;;
24857;SDS011;12935;50.782;6.074;2024-03-06T02:06:11;98.37;;;86.40;;
24857;SDS011;12935;50.782;6.074;2024-03-06T02:08:36;96.57;;;86.10;;
24857;SDS011;12935;50.782;6.074;2024-03-06T02:11:02;91.40;;;81.93;;
24857;SDS011;12935;50.782;6.074;2024-03-06T02:13:28;96.05;;;85.07;;
24857;SDS011;12935;50.782;6.074;2024-03-06T02:15:54;98.53;;;86.67;;
24857;SDS011;12935;50.782;6.074;2024-03-06T02:18:20;103.00;;;87.47;;
24857;SDS011;12935;50.782;6.074;2024-03-06T02:20:46;102.93;;;87.43;;
24857;SDS011;12935;50.782;6.074;2024-03-06T02:23:12;103.10;;;88.30;;
24857;SDS011;12935;50.782;6.074;2024-03-06T02:25:38;103.78;;;89.13;;
24857;SDS011;12935;50.782;6.074;2024-03-06T02:28:03;98.63;;;88.00;;
24857;SDS011;12935;50.782;6.074;2024-03-06T02:30:31;95.07;;;84.90;;
24857;SDS011;12935;50.782;6.074;2024-03-06T02:33:01;118.30;;;92.15;;
24857;SDS011;12935;50.782;6.074;2024-03-06T02:35:26;96.57;;;86.27;;
24857;SDS011;12935;50.782;6.074;2024-03-06T02:37:52;125.20;;;93.13;;
24857;SDS011;12935;50.782;6.074;2024-03-06T02:40:17;104.37;;;87.00;;
24857;SDS011;12935;50.782;6.074;2024-03-06T02:42:42;96.50;;;85.90;;
24857;SDS011;12935;50.782;6.074;2024-03-06T02:45:08;93.63;;;84.07;;
24857;SDS011;12935;50.782;6.074;2024-03-06T02:47:33;95.87;;;85.57;;
24857;SDS011;12935;50.782;6.074;2024-03-06T02:49:59;105.17;;;88.13;;
24857;SDS011;12935;50.782;6.074;2024-03-06T02:52:24;102.93;;;86.83;;
24857;SDS011;12935;50.782;6.074;2024-03-06T02:54:49;95.43;;;85.10;;
24857;SDS011;12935;50.782;6.074;2024-03-06T02:57:15;100.57;;;86.97;;
24857;SDS011;12935;50.782;6.074;2024-03-06T02:59:40;105.00;;;89.00;;
24857;SDS011;12935;50.782;6.074;2024-03-06T03:02:05;92.23;;;82.83;;
24857;SDS011;12935;50.782;6.074;2024-03-06T03:04:31;92.30;;;82.93;;
24857;SDS011;12935;50.782;6.074;2024-03-06T03:06:57;98.73;;;87.13;;
24857;SDS011;12935;50.782;6.074;2024-03-06T03:09:22;94.23;;;83.70;;
24857;SDS011;12935;50.782;6.074;2024-03-06T03:11:48;91.57;;;81.97;;
24857;SDS011;12935;50.782;6.074;2024-03-06T03:14:13;92.63;;;82.97;;
24857;SDS011;12935;50.782;6.074;2024-03-06T03:16:39;100.13;;;87.03;;
24857;SDS011;12935;50.782;6.074;2024-03-06T03:19:04;94.97;;;84.70;;
24857;SDS011;12935;50.782;6.074;2024-03-06T03:21:30;98.40;;;86.50;;
24857;SDS011;12935;50.782;6.074;2024-03-06T03:23:55;95.40;;;85.17;;
24857;SDS011;12935;50.782;6.074;2024-03-06T03:26:20;94.77;;;84.60;;
24857;SDS011;12935;50.782;6.074;2024-03-06T03:28:45;112.00;;;91.33;;
24857;SDS011;12935;50.782;6.074;2024-03-06T03:31:11;95.80;;;85.43;;
24857;SDS011;12935;50.782;6.074;2024-03-06T03:33:39;102.90;;;87.73;;
24857;SDS011;12935;50.782;6.074;2024-03-06T03:36:05;95.95;;;85.32;;
24857;SDS011;12935;50.782;6.074;2024-03-06T03:38:38;112.18;;;90.10;;
24857;SDS011;12935;50.782;6.074;2024-03-06T03:41:12;99.07;;;88.07;;
24857;SDS011;12935;50.782;6.074;2024-03-06T03:43:38;90.43;;;81.32;;
24857;SDS011;12935;50.782;6.074;2024-03-06T03:46:04;98.15;;;87.28;;
24857;SDS011;12935;50.782;6.074;2024-03-06T03:48:30;95.13;;;84.50;;
24857;SDS011;12935;50.782;6.074;2024-03-06T03:50:56;95.10;;;84.93;;
24857;SDS011;12935;50.782;6.074;2024-03-06T03:53:21;97.27;;;86.67;;
24857;SDS011;12935;50.782;6.074;2024-03-06T03:55:46;94.90;;;84.67;;
24857;SDS011;12935;50.782;6.074;2024-03-06T03:58:11;101.87;;;87.40;;
24857;SDS011;12935;50.782;6.074;2024-03-06T04:00:37;98.07;;;86.60;;
24857;SDS011;12935;50.782;6.074;2024-03-06T04:03:03;104.43;;;87.93;;
24857;SDS011;12935;50.782;6.074;2024-03-06T04:05:28;95.80;;;85.40;;
24857;SDS011;12935;50.782;6.074;2024-03-06T04:07:54;93.90;;;84.13;;
24857;SDS011;12935;50.782;6.074;2024-03-06T04:10:19;99.70;;;87.73;;
24857;SDS011;12935;50.782;6.074;2024-03-06T04:12:44;101.07;;;86.57;;
24857;SDS011;12935;50.782;6.074;2024-03-06T04:15:09;94.17;;;84.17;;
24857;SDS011;12935;50.782;6.074;2024-03-06T04:17:35;93.27;;;82.87;;
24857;SDS011;12935;50.782;6.074;2024-03-06T04:20:01;101.45;;;87.60;;
24857;SDS011;12935;50.782;6.074;2024-03-06T04:22:27;107.28;;;90.15;;
24857;SDS011;12935;50.782;6.074;2024-03-06T04:24:54;98.20;;;86.63;;
24857;SDS011;12935;50.782;6.074;2024-03-06T04:27:20;93.00;;;82.93;;
24857;SDS011;12935;50.782;6.074;2024-03-06T04:29:46;100.80;;;85.23;;
24857;SDS011;12935;50.782;6.074;2024-03-06T04:32:11;93.50;;;83.90;;
24857;SDS011;12935;50.782;6.074;2024-03-06T04:34:36;90.93;;;81.70;;
24857;SDS011;12935;50.782;6.074;2024-03-06T04:37:02;94.93;;;84.87;;
24857;SDS011;12935;50.782;6.074;2024-03-06T04:39:27;96.03;;;85.10;;
24857;SDS011;12935;50.782;6.074;2024-03-06T04:41:53;96.37;;;85.97;;
24857;SDS011;12935;50.782;6.074;2024-03-06T04:44:18;93.93;;;83.60;;
24857;SDS011;12935;50.782;6.074;2024-03-06T04:46:43;94.60;;;84.50;;
24857;SDS011;12935;50.782;6.074;2024-03-06T04:49:08;118.67;;;90.17;;
24857;SDS011;12935;50.782;6.074;2024-03-06T04:51:34;92.70;;;82.87;;
24857;SDS011;12935;50.782;6.074;2024-03-06T04:53:59;100.10;;;88.87;;
24857;SDS011;12935;50.782;6.074;2024-03-06T04:56:24;95.43;;;84.90;;
24857;SDS011;12935;50.782;6.074;2024-03-06T04:58:49;100.80;;;87.00;;
24857;SDS011;12935;50.782;6.074;2024-03-06T05:01:16;95.78;;;86.10;;
24857;SDS011;12935;50.782;6.074;2024-03-06T05:03:41;100.77;;;89.23;;
24857;SDS011;12935;50.782;6.074;2024-03-06T05:06:07;93.47;;;83.63;;
24857;SDS011;12935;50.782;6.074;2024-03-06T05:08:32;97.30;;;86.90;;
24857;SDS011;12935;50.782;6.074;2024-03-06T05:10:59;96.18;;;85.13;;
24857;SDS011;12935;50.782;6.074;2024-03-06T05:13:25;103.43;;;87.13;;
24857;SDS011;12935;50.782;6.074;2024-03-06T05:15:51;116.28;;;88.43;;
24857;SDS011;12935;50.782;6.074;2024-03-06T05:18:17;95.87;;;85.37;;
24857;SDS011;12935;50.782;6.074;2024-03-06T05:20:42;108.00;;;89.70;;
24857;SDS011;12935;50.782;6.074;2024-03-06T05:23:08;95.83;;;84.80;;
24857;SDS011;12935;50.782;6.074;2024-03-06T05:25:33;98.77;;;88.47;;
24857;SDS011;12935;50.782;6.074;2024-03-06T05:27:59;104.17;;;89.10;;
24857;SDS011;12935;50.782;6.074;2024-03-06T05:30:24;106.30;;;88.23;;
24857;SDS011;12935;50.782;6.074;2024-03-06T05:32:49;97.53;;;86.50;;
24857;SDS011;12935;50.782;6.074;2024-03-06T05:35:14;92.73;;;83.13;;
24857;SDS011;12935;50.782;6.074;2024-03-06T05:37:40;95.93;;;85.43;;
24857;SDS011;12935;50.782;6.074;2024-03-06T05:40:05;114.90;;;89.50;;
24857;SDS011;12935;50.782;6.074;2024-03-06T05:42:31;96.15;;;85.95;;
24857;SDS011;12935;50.782;6.074;2024-03-06T05:44:57;97.90;;;86.90;;
24857;SDS011;12935;50.782;6.074;2024-03-06T05:47:29;95.07;;;84.78;;
24857;SDS011;12935;50.782;6.074;2024-03-06T05:49:56;93.82;;;84.15;;
24857;SDS011;12935;50.782;6.074;2024-03-06T05:52:21;108.03;;;88.87;;
24857;SDS011;12935;50.782;6.074;2024-03-06T05:54:47;105.23;;;86.50;;
24857;SDS011;12935;50.782;6.074;2024-03-06T05:57:12;92.33;;;82.77;;
24857;SDS011;12935;50.782;6.074;2024-03-06T05:59:37;100.33;;;86.57;;
24857;SDS011;12935;50.782;6.074;2024-03-06T06:02:05;121.65;;;91.55;;
24857;SDS011;12935;50.782;6.074;2024-03-06T06:04:30;92.17;;;82.63;;
24857;SDS011;12935;50.782;6.074;2024-03-06T06:06:55;91.00;;;81.63;;
24857;SDS011;12935;50.782;6.074;2024-03-06T06:09:20;98.00;;;85.67;;
24857;SDS011;12935;50.782;6.074;2024-03-06T06:11:46;94.37;;;84.20;;
24857;SDS011;12935;50.782;6.074;2024-03-06T06:14:12;100.60;;;87.25;;
24857;SDS011;12935;50.782;6.074;2024-03-06T06:16:38;95.33;;;84.63;;
24857;SDS011;12935;50.782;6.074;2024-03-06T06:19:05;99.35;;;85.78;;
24857;SDS011;12935;50.782;6.074;2024-03-06T06:21:31;91.83;;;81.90;;
24857;SDS011;12935;50.782;6.074;2024-03-06T06:23:57;90.83;;;81.43;;
24857;SDS011;12935;50.782;6.074;2024-03-06T06:26:22;131.93;;;120.47;;
24857;SDS011;12935;50.782;6.074;2024-03-06T06:28:47;97.10;;;86.40;;
24857;SDS011;12935;50.782;6.074;2024-03-06T06:31:13;101.37;;;86.83;;
24857;SDS011;12935;50.782;6.074;2024-03-06T06:33:38;99.57;;;86.93;;
24857;SDS011;12935;50.782;6.074;2024-03-06T06:36:03;96.07;;;85.57;;
24857;SDS011;12935;50.782;6.074;2024-03-06T06:38:29;95.80;;;85.50;;
24857;SDS011;12935;50.782;6.074;2024-03-06T06:40:55;92.87;;;83.33;;
24857;SDS011;12935;50.782;6.074;2024-03-06T06:43:20;93.38;;;83.47;;
24857;SDS011;12935;50.782;6.074;2024-03-06T06:45:46;100.07;;;85.83;;
24857;SDS011;12935;50.782;6.074;2024-03-06T06:48:11;92.23;;;82.57;;
24857;SDS011;12935;50.782;6.074;2024-03-06T06:50:37;90.93;;;81.73;;
24857;SDS011;12935;50.782;6.074;2024-03-06T06:53:02;95.97;;;85.50;;
24857;SDS011;12935;50.782;6.074;2024-03-06T06:55:28;97.23;;;86.50;;
24857;SDS011;12935;50.782;6.074;2024-03-06T06:57:54;91.80;;;82.40;;
24857;SDS011;12935;50.782;6.074;2024-03-06T07:00:19;106.27;;;88.10;;
24857;SDS011;12935;50.782;6.074;2024-03-06T07:02:47;99.55;;;88.10;;
24857;SDS011;12935;50.782;6.074;2024-03-06T07:05:12;94.73;;;84.57;;
24857;SDS011;12935;50.782;6.074;2024-03-06T07:07:38;91.83;;;82.37;;
24857;SDS011;12935;50.782;6.074;2024-03-06T07:10:04;109.57;;;88.80;;
24857;SDS011;12935;50.782;6.074;2024-03-06T07:12:30;93.68;;;83.57;;
24857;SDS011;12935;50.782;6.074;2024-03-06T07:14:56;96.47;;;85.47;;
24857;SDS011;12935;50.782;6.074;2024-03-06T07:17:22;99.68;;;86.82;;
24857;SDS011;12935;50.782;6.074;2024-03-06T07:19:48;119.40;;;90.73;;
24857;SDS011;12935;50.782;6.074;2024-03-06T07:22:13;94.80;;;84.80;;
24857;SDS011;12935;50.782;6.074;2024-03-06T07:24:38;94.67;;;84.57;;
24857;SDS011;12935;50.782;6.074;2024-03-06T07:27:04;113.40;;;90.83;;
24857;SDS011;12935;50.782;6.074;2024-03-06T07:29:29;94.77;;;84.57;;
24857;SDS011;12935;50.782;6.074;2024-03-06T07:31:55;106.93;;;87.20;;
24857;SDS011;12935;50.782;6.074;2024-03-06T07:34:20;109.07;;;88.33;;
24857;SDS011;12935;50.782;6.074;2024-03-06T07:36:46;102.27;;;89.70;;
24857;SDS011;12935;50.782;6.074;2024-03-06T07:39:12;110.25;;;87.32;;
24857;SDS011;12935;50.782;6.074;2024-03-06T07:41:39;94.72;;;84.80;;
24857;SDS011;12935;50.782;6.074;2024-03-06T07:44:04;99.60;;;87.43;;
24857;SDS011;12935;50.782;6.074;2024-03-06T07:46:29;97.53;;;86.80;;
24857;SDS011;12935;50.782;6.074;2024-03-06T07:48:55;101.13;;;87.00;;
24857;SDS011;12935;50.782;6.074;2024-03-06T07:51:20;100.33;;;88.60;;
24857;SDS011;12935;50.782;6.074;2024-03-06T07:53:46;98.83;;;86.37;;
24857;SDS011;12935;50.782;6.074;2024-03-06T07:56:11;98.23;;;87.73;;
24857;SDS011;12935;50.782;6.074;2024-03-06T07:58:37;113.33;;;91.47;;
24857;SDS011;12935;50.782;6.074;2024-03-06T08:01:02;110.03;;;89.43;;
24857;SDS011;12935;50.782;6.074;2024-03-06T08:03:28;98.23;;;87.63;;
24857;SDS011;12935;50.782;6.074;2024-03-06T08:05:53;102.80;;;86.80;;
24857;SDS011;12935;50.782;6.074;2024-03-06T08:08:19;96.87;;;86.23;;
24857;SDS011;12935;50.782;6.074;2024-03-06T08:10:45;99.32;;;86.38;;
24857;SDS011;12935;50.782;6.074;2024-03-06T08:13:11;96.07;;;85.47;;
24857;SDS011;12935;50.782;6.074;2024-03-06T08:15:36;95.43;;;85.13;;
24857;SDS011;12935;50.782;6.074;2024-03-06T08:18:02;126.87;;;97.13;;
24857;SDS011;12935;50.782;6.074;2024-03-06T08:20:28;95.50;;;85.35;;
24857;SDS011;12935;50.782;6.074;2024-03-06T08:22:54;101.03;;;87.87;;
24857;SDS011;12935;50.782;6.074;2024-03-06T08:25:21;97.75;;;87.13;;
24857;SDS011;12935;50.782;6.074;2024-03-06T08:27:46;98.50;;;86.33;;
24857;SDS011;12935;50.782;6.074;2024-03-06T08:30:11;97.07;;;86.70;;
24857;SDS011;12935;50.782;6.074;2024-03-06T08:32:37;100.93;;;88.63;;
24857;SDS011;12935;50.782;6.074;2024-03-06T08:35:04;106.03;;;89.63;;
24857;SDS011;12935;50.782;6.074;2024-03-06T08:37:36;100.80;;;89.03;;
24857;SDS011;12935;50.782;6.074;2024-03-06T08:40:02;116.97;;;91.73;;
24857;SDS011;12935;50.782;6.074;2024-03-06T08:42:27;101.07;;;88.93;;
24857;SDS011;12935;50.782;6.074;2024-03-06T08:44:53;96.53;;;86.27;;
24857;SDS011;12935;50.782;6.074;2024-03-06T08:47:18;99.63;;;87.30;;
24857;SDS011;12935;50.782;6.074;2024-03-06T08:49:44;116.13;;;93.30;;
24857;SDS011;12935;50.782;6.074;2024-03-06T08:52:10;102.00;;;90.57;;
24857;SDS011;12935;50.782;6.074;2024-03-06T08:54:35;100.43;;;87.40;;
24857;SDS011;12935;50.782;6.074;2024-03-06T08:57:01;110.68;;;88.78;;
24857;SDS011;12935;50.782;6.074;2024-03-06T08:59:28;106.22;;;90.20;;
24857;SDS011;12935;50.782;6.074;2024-03-06T09:01:54;106.15;;;89.75;;
24857;SDS011;12935;50.782;6.074;2024-03-06T09:04:20;99.10;;;86.32;;
24857;SDS011;12935;50.782;6.074;2024-03-06T09:06:46;116.97;;;92.07;;
24857;SDS011;12935;50.782;6.074;2024-03-06T09:09:11;123.40;;;93.80;;
24857;SDS011;12935;50.782;6.074;2024-03-06T09:11:39;103.55;;;88.25;;
24857;SDS011;12935;50.782;6.074;2024-03-06T09:14:05;123.53;;;96.30;;
24857;SDS011;12935;50.782;6.074;2024-03-06T09:16:31;103.90;;;89.30;;
24857;SDS011;12935;50.782;6.074;2024-03-06T09:18:56;101.03;;;89.50;;
24857;SDS011;12935;50.782;6.074;2024-03-06T09:21:21;116.57;;;92.03;;
24857;SDS011;12935;50.782;6.074;2024-03-06T09:23:47;129.50;;;96.80;;
24857;SDS011;12935;50.782;6.074;2024-03-06T09:26:16;103.97;;;88.50;;
24857;SDS011;12935;50.782;6.074;2024-03-06T09:28:42;116.57;;;92.73;;
24857;SDS011;12935;50.782;6.074;2024-03-06T09:31:07;110.60;;;91.60;;
24857;SDS011;12935;50.782;6.074;2024-03-06T09:33:32;109.50;;;92.60;;
24857;SDS011;12935;50.782;6.074;2024-03-06T09:35:58;114.97;;;93.55;;
24857;SDS011;12935;50.782;6.074;2024-03-06T09:38:24;103.77;;;89.97;;
24857;SDS011;12935;50.782;6.074;2024-03-06T09:40:49;117.80;;;94.50;;
24857;SDS011;12935;50.782;6.074;2024-03-06T09:43:16;108.40;;;90.17;;
24857;SDS011;12935;50.782;6.074;2024-03-06T09:45:42;113.13;;;92.97;;
24857;SDS011;12935;50.782;6.074;2024-03-06T09:48:13;115.33;;;93.03;;
24857;SDS011;12935;50.782;6.074;2024-03-06T09:50:38;110.47;;;93.90;;
24857;SDS011;12935;50.782;6.074;2024-03-06T09:53:10;121.87;;;94.20;;
24857;SDS011;12935;50.782;6.074;2024-03-06T09:55:39;125.37;;;98.00;;
24857;SDS011;12935;50.782;6.074;2024-03-06T09:58:06;109.07;;;93.60;;
24857;SDS011;12935;50.782;6.074;2024-03-06T10:00:33;137.53;;;100.07;;
24857;SDS011;12935;50.782;6.074;2024-03-06T10:02:59;113.03;;;92.77;;
24857;SDS011;12935;50.782;6.074;2024-03-06T10:05:28;127.33;;;96.47;;
24857;SDS011;12935;50.782;6.074;2024-03-06T10:07:55;115.93;;;95.30;;
24857;SDS011;12935;50.782;6.074;2024-03-06T10:10:21;131.13;;;114.47;;
24857;SDS011;12935;50.782;6.074;2024-03-06T10:12:47;118.73;;;95.67;;
24857;SDS011;12935;50.782;6.074;2024-03-06T10:15:14;127.17;;;98.10;;
24857;SDS011;12935;50.782;6.074;2024-03-06T10:17:40;126.00;;;96.97;;
24857;SDS011;12935;50.782;6.074;2024-03-06T10:20:21;119.60;;;96.93;;
24857;SDS011;12935;50.782;6.074;2024-03-06T10:22:51;125.87;;;96.87;;
24857;SDS011;12935;50.782;6.074;2024-03-06T10:25:18;119.20;;;96.00;;
24857;SDS011;12935;50.782;6.074;2024-03-06T10:27:45;132.23;;;98.60;;
24857;SDS011;12935;50.782;6.074;2024-03-06T10:30:10;127.03;;;96.57;;
24857;SDS011;12935;50.782;6.074;2024-03-06T10:32:38;122.03;;;95.73;;
24857;SDS011;12935;50.782;6.074;2024-03-06T10:35:04;127.60;;;95.90;;
24857;SDS011;12935;50.782;6.074;2024-03-06T10:37:31;118.50;;;95.30;;
24857;SDS011;12935;50.782;6.074;2024-03-06T10:39:59;139.43;;;98.90;;
24857;SDS011;12935;50.782;6.074;2024-03-06T10:42:31;112.37;;;94.50;;
24857;SDS011;12935;50.782;6.074;2024-03-06T10:44:58;112.17;;;93.97;;
24857;SDS011;12935;50.782;6.074;2024-03-06T10:47:25;114.80;;;94.40;;
24857;SDS011;12935;50.782;6.074;2024-03-06T10:49:52;109.13;;;92.00;;
24857;SDS011;12935;50.782;6.074;2024-03-06T10:52:19;124.97;;;96.43;;
24857;SDS011;12935;50.782;6.074;2024-03-06T10:54:44;110.83;;;93.77;;
24857;SDS011;12935;50.782;6.074;2024-03-06T10:57:13;112.23;;;93.17;;
24857;SDS011;12935;50.782;6.074;2024-03-06T10:59:39;117.60;;;95.00;;
24857;SDS011;12935;50.782;6.074;2024-03-06T11:02:07;121.93;;;94.70;;
24857;SDS011;12935;50.782;6.074;2024-03-06T11:04:33;114.27;;;94.83;;
24857;SDS011;12935;50.782;6.074;2024-03-06T11:06:59;125.20;;;94.77;;
24857;SDS011;12935;50.782;6.074;2024-03-06T11:09:34;115.77;;;93.87;;
24857;SDS011;12935;50.782;6.074;2024-03-06T11:12:01;115.40;;;95.70;;
24857;SDS011;12935;50.782;6.074;2024-03-06T11:14:27;120.77;;;95.80;;
24857;SDS011;12935;50.782;6.074;2024-03-06T11:19:28;130.43;;;102.53;;
24857;SDS011;12935;50.782;6.074;2024-03-06T11:21:56;113.90;;;93.40;;
24857;SDS011;12935;50.782;6.074;2024-03-06T11:24:23;136.43;;;100.87;;
24857;SDS011;12935;50.782;6.074;2024-03-06T11:26:57;133.93;;;100.90;;
24857;SDS011;12935;50.782;6.074;2024-03-06T11:30:02;133.73;;;101.73;;
24857;SDS011;12935;50.782;6.074;2024-03-06T11:32:36;137.17;;;99.20;;
24857;SDS011;12935;50.782;6.074;2024-03-06T11:35:03;121.57;;;95.37;;
24857;SDS011;12935;50.782;6.074;2024-03-06T11:37:33;134.30;;;100.47;;
24857;SDS011;12935;50.782;6.074;2024-03-06T11:39:59;136.90;;;101.43;;
24857;SDS011;12935;50.782;6.074;2024-03-06T11:42:33;132.13;;;98.90;;
24857;SDS011;12935;50.782;6.074;2024-03-06T11:45:12;125.30;;;96.53;;
24857;SDS011;12935;50.782;6.074;2024-03-06T11:47:58;139.10;;;103.00;;
24857;SDS011;12935;50.782;6.074;2024-03-06T11:50:25;127.80;;;98.80;;
24857;SDS011;12935;50.782;6.074;2024-03-06T11:52:51;141.73;;;101.87;;
24857;SDS011;12935;50.782;6.074;2024-03-06T11:55:16;136.03;;;106.37;;
24857;SDS011;12935;50.782;6.074;2024-03-06T11:57:42;130.40;;;98.10;;
24857;SDS011;12935;50.782;6.074;2024-03-06T12:00:07;151.80;;;104.10;;
24857;SDS011;12935;50.782;6.074;2024-03-06T12:02:33;137.63;;;98.73;;
24857;SDS011;12935;50.782;6.074;2024-03-06T12:05:02;126.63;;;92.93;;
24857;SDS011;12935;50.782;6.074;2024-03-06T12:07:28;142.90;;;102.47;;
24857;SDS011;12935;50.782;6.074;2024-03-06T12:09:53;146.37;;;101.10;;
24857;SDS011;12935;50.782;6.074;2024-03-06T12:12:18;135.53;;;99.23;;
24857;SDS011;12935;50.782;6.074;2024-03-06T12:14:43;144.07;;;103.20;;
24857;SDS011;12935;50.782;6.074;2024-03-06T12:17:21;127.43;;;96.87;;
24857;SDS011;12935;50.782;6.074;2024-03-06T12:19:47;156.73;;;102.77;;
24857;SDS011;12935;50.782;6.074;2024-03-06T12:22:13;126.23;;;96.83;;
24857;SDS011;12935;50.782;6.074;2024-03-06T12:24:40;137.90;;;100.47;;
24857;SDS011;12935;50.782;6.074;2024-03-06T12:27:06;115.50;;;92.90;;
24857;SDS011;12935;50.782;6.074;2024-03-06T12:29:32;126.77;;;96.43;;
24857;SDS011;12935;50.782;6.074;2024-03-06T12:31:59;127.53;;;97.30;;
24857;SDS011;12935;50.782;6.074;2024-03-06T12:34:25;111.87;;;93.27;;
24857;SDS011;12935;50.782;6.074;2024-03-06T12:36:51;124.53;;;95.70;;
24857;SDS011;12935;50.782;6.074;2024-03-06T12:39:16;134.80;;;97.97;;
24857;SDS011;12935;50.782;6.074;2024-03-06T12:41:46;113.10;;;92.60;;
24857;SDS011;12935;50.782;6.074;2024-03-06T12:44:11;115.77;;;93.80;;
24857;SDS011;12935;50.782;6.074;2024-03-06T12:46:37;124.47;;;95.00;;
24857;SDS011;12935;50.782;6.074;2024-03-06T12:49:02;126.33;;;97.10;;
24857;SDS011;12935;50.782;6.074;2024-03-06T12:51:27;119.00;;;93.60;;
24857;SDS011;12935;50.782;6.074;2024-03-06T12:53:52;117.80;;;94.17;;
24857;SDS011;12935;50.782;6.074;2024-03-06T12:56:18;134.63;;;99.30;;
24857;SDS011;12935;50.782;6.074;2024-03-06T12:58:44;131.40;;;99.53;;
24857;SDS011;12935;50.782;6.074;2024-03-06T13:01:09;119.07;;;94.90;;
24857;SDS011;12935;50.782;6.074;2024-03-06T13:03:35;122.40;;;94.70;;
24857;SDS011;12935;50.782;6.074;2024-03-06T13:06:01;127.57;;;97.20;;
24857;SDS011;12935;50.782;6.074;2024-03-06T13:08:27;129.63;;;98.30;;
24857;SDS011;12935;50.782;6.074;2024-03-06T13:10:52;147.27;;;101.20;;
24857;SDS011;12935;50.782;6.074;2024-03-06T13:13:17;135.20;;;97.57;;
24857;SDS011;12935;50.782;6.074;2024-03-06T13:15:43;121.20;;;95.60;;
24857;SDS011;12935;50.782;6.074;2024-03-06T13:18:09;111.80;;;91.63;;
24857;SDS011;12935;50.782;6.074;2024-03-06T13:20:34;124.57;;;94.40;;
24857;SDS011;12935;50.782;6.074;2024-03-06T13:23:00;138.60;;;99.53;;
24857;SDS011;12935;50.782;6.074;2024-03-06T13:25:26;122.50;;;95.27;;
24857;SDS011;12935;50.782;6.074;2024-03-06T13:27:51;135.57;;;98.47;;
24857;SDS011;12935;50.782;6.074;2024-03-06T13:30:19;140.63;;;101.37;;
24857;SDS011;12935;50.782;6.074;2024-03-06T13:32:45;122.10;;;94.83;;
24857;SDS011;12935;50.782;6.074;2024-03-06T13:35:11;135.20;;;99.37;;
24857;SDS011;12935;50.782;6.074;2024-03-06T13:37:41;119.93;;;95.50;;
24857;SDS011;12935;50.782;6.074;2024-03-06T13:40:07;143.63;;;102.90;;
24857;SDS011;12935;50.782;6.074;2024-03-06T13:42:33;126.90;;;98.33;;
24857;SDS011;12935;50.782;6.074;2024-03-06T13:44:59;112.60;;;94.00;;
24857;SDS011;12935;50.782;6.074;2024-03-06T13:47:24;141.03;;;99.73;;
24857;SDS011;12935;50.782;6.074;2024-03-06T13:49:50;124.13;;;93.73;;
24857;SDS011;12935;50.782;6.074;2024-03-06T13:52:16;115.90;;;93.30;;
24857;SDS011;12935;50.782;6.074;2024-03-06T13:54:45;120.47;;;94.40;;
24857;SDS011;12935;50.782;6.074;2024-03-06T13:57:10;109.77;;;91.87;;
24857;SDS011;12935;50.782;6.074;2024-03-06T13:59:36;109.03;;;91.90;;
24857;SDS011;12935;50.782;6.074;2024-03-06T14:02:02;115.57;;;94.97;;
24857;SDS011;12935;50.782;6.074;2024-03-06T14:04:28;131.00;;;97.20;;
24857;SDS011;12935;50.782;6.074;2024-03-06T14:06:54;112.80;;;92.23;;
24857;SDS011;12935;50.782;6.074;2024-03-06T14:09:22;130.60;;;97.20;;
24857;SDS011;12935;50.782;6.074;2024-03-06T14:11:48;118.30;;;94.70;;